« Back
NWS Peachtree City, Ga » Text Product » MCN Terminal Aerodrome Forecast


Printer-friendly Version
Current Version              Previous Versions:   1  2  3  4  5  6  7  8  9  

Terminal Aerodrome Forecast

400
FTUS42 KFFC 270521
TAFMCN
TAF
KMCN 270521Z 2706/2806 30003KT P6SM BKN250
     FM271200 35006KT P6SM BKN025
     FM271500 35010KT P6SM SCT045 SCT200=



USA.gov is the U.S. government's official web portal to all federal, state and local government web resources and services.